sensor_id;sensor_type;location;lat;lon;timestamp;pressure;altitude;pressure_sealevel;temperature;humidity
72423;BME280;60413;55.658;37.498;2022-10-16T00:00:09;100028.44;;;3.83;100.00
72423;BME280;60413;55.658;37.498;2022-10-16T00:02:39;100059.38;;;4.09;100.00
72423;BME280;60413;55.658;37.498;2022-10-16T00:05:05;100061.88;;;4.02;100.00
72423;BME280;60413;55.658;37.498;2022-10-16T00:07:32;100046.22;;;3.79;100.00
72423;BME280;60413;55.658;37.498;2022-10-16T00:10:00;100084.50;;;4.10;100.00
72423;BME280;60413;55.658;37.498;2022-10-16T00:12:26;100074.28;;;4.00;100.00
72423;BME280;60413;55.658;37.498;2022-10-16T00:15:04;100092.72;;;3.99;100.00
72423;BME280;60413;55.658;37.498;2022-10-16T00:17:37;100080.19;;;3.94;100.00
72423;BME280;60413;55.658;37.498;2022-10-16T00:20:04;100129.13;;;4.23;100.00
72423;BME280;60413;55.658;37.498;2022-10-16T00:23:00;100146.75;;;4.21;100.00
72423;BME280;60413;55.658;37.498;2022-10-16T00:25:33;100116.44;;;4.12;100.00
72423;BME280;60413;55.658;37.498;2022-10-16T00:28:04;100084.13;;;3.90;100.00
72423;BME280;60413;55.658;37.498;2022-10-16T00:30:31;100085.09;;;3.89;100.00
72423;BME280;60413;55.658;37.498;2022-10-16T00:32:59;100103.97;;;3.99;100.00
72423;BME280;60413;55.658;37.498;2022-10-16T00:35:26;100141.22;;;4.16;100.00
72423;BME280;60413;55.658;37.498;2022-10-16T00:38:17;100062.72;;;3.63;100.00
72423;BME280;60413;55.658;37.498;2022-10-16T00:40:50;100143.53;;;4.11;100.00
72423;BME280;60413;55.658;37.498;2022-10-16T00:43:37;100144.72;;;4.00;100.00
72423;BME280;60413;55.658;37.498;2022-10-16T00:46:35;100087.22;;;3.85;100.00
72423;BME280;60413;55.658;37.498;2022-10-16T00:49:29;100111.84;;;3.91;100.00
72423;BME280;60413;55.658;37.498;2022-10-16T00:51:55;100111.00;;;3.90;100.00
72423;BME280;60413;55.658;37.498;2022-10-16T00:54:27;100052.50;;;3.53;100.00
72423;BME280;60413;55.658;37.498;2022-10-16T00:56:56;100093.22;;;3.63;100.00
72423;BME280;60413;55.658;37.498;2022-10-16T00:59:29;100111.41;;;3.79;100.00
72423;BME280;60413;55.658;37.498;2022-10-16T01:01:56;100120.34;;;3.85;100.00
72423;BME280;60413;55.658;37.498;2022-10-16T01:04:23;100086.31;;;3.78;100.00
72423;BME280;60413;55.658;37.498;2022-10-16T01:15:14;100120.47;;;3.92;100.00
72423;BME280;60413;55.658;37.498;2022-10-16T01:20:24;100150.38;;;4.12;100.00
72423;BME280;60413;55.658;37.498;2022-10-16T01:23:01;100158.03;;;4.14;100.00
72423;BME280;60413;55.658;37.498;2022-10-16T01:28:11;100097.13;;;3.59;100.00
72423;BME280;60413;55.658;37.498;2022-10-16T01:30:40;100115.81;;;3.70;100.00
72423;BME280;60413;55.658;37.498;2022-10-16T01:33:18;100096.00;;;3.53;100.00
72423;BME280;60413;55.658;37.498;2022-10-16T01:35:52;100118.94;;;3.66;100.00
72423;BME280;60413;55.658;37.498;2022-10-16T01:38:36;100143.81;;;3.77;100.00
72423;BME280;60413;55.658;37.498;2022-10-16T01:41:19;100136.31;;;3.82;100.00
72423;BME280;60413;55.658;37.498;2022-10-16T01:44:04;100084.31;;;3.41;100.00
72423;BME280;60413;55.658;37.498;2022-10-16T01:46:34;100166.78;;;3.89;100.00
72423;BME280;60413;55.658;37.498;2022-10-16T01:49:10;100075.88;;;3.22;100.00
72423;BME280;60413;55.658;37.498;2022-10-16T01:51:38;100089.38;;;3.34;100.00
72423;BME280;60413;55.658;37.498;2022-10-16T01:54:08;100130.69;;;3.53;100.00
72423;BME280;60413;55.658;37.498;2022-10-16T01:56:34;100146.81;;;3.57;100.00
72423;BME280;60413;55.658;37.498;2022-10-16T01:59:09;100123.38;;;3.41;100.00
72423;BME280;60413;55.658;37.498;2022-10-16T02:01:39;100084.69;;;3.21;100.00
72423;BME280;60413;55.658;37.498;2022-10-16T02:04:14;100136.53;;;3.56;100.00
72423;BME280;60413;55.658;37.498;2022-10-16T02:06:42;100169.75;;;3.78;100.00
72423;BME280;60413;55.658;37.498;2022-10-16T02:09:09;100187.50;;;3.75;100.00
72423;BME280;60413;55.658;37.498;2022-10-16T02:11:35;100142.44;;;3.58;100.00
72423;BME280;60413;55.658;37.498;2022-10-16T02:14:05;100099.31;;;3.30;100.00
72423;BME280;60413;55.658;37.498;2022-10-16T02:16:40;100131.84;;;3.51;100.00
72423;BME280;60413;55.658;37.498;2022-10-16T02:19:12;100096.22;;;3.27;100.00
72423;BME280;60413;55.658;37.498;2022-10-16T02:27:10;100152.47;;;3.69;100.00
72423;BME280;60413;55.658;37.498;2022-10-16T02:29:40;100170.53;;;3.87;100.00
72423;BME280;60413;55.658;37.498;2022-10-16T02:32:12;100132.31;;;3.63;100.00
72423;BME280;60413;55.658;37.498;2022-10-16T02:34:45;100098.19;;;3.33;100.00
72423;BME280;60413;55.658;37.498;2022-10-16T02:37:12;100116.41;;;3.33;100.00
72423;BME280;60413;55.658;37.498;2022-10-16T02:39:42;100138.53;;;3.45;100.00
72423;BME280;60413;55.658;37.498;2022-10-16T02:42:15;100113.50;;;3.36;100.00
72423;BME280;60413;55.658;37.498;2022-10-16T02:44:42;100179.38;;;3.78;100.00
72423;BME280;60413;55.658;37.498;2022-10-16T02:47:13;100111.88;;;3.19;100.00
72423;BME280;60413;55.658;37.498;2022-10-16T02:49:41;100177.13;;;3.58;100.00
72423;BME280;60413;55.658;37.498;2022-10-16T02:52:07;100130.59;;;3.22;100.00
72423;BME280;60413;55.658;37.498;2022-10-16T02:54:33;100141.16;;;3.29;100.00
72423;BME280;60413;55.658;37.498;2022-10-16T02:57:00;100142.66;;;3.23;100.00
72423;BME280;60413;55.658;37.498;2022-10-16T02:59:29;100156.94;;;3.36;100.00
72423;BME280;60413;55.658;37.498;2022-10-16T03:01:54;100159.06;;;3.32;100.00
72423;BME280;60413;55.658;37.498;2022-10-16T03:04:20;100136.63;;;3.23;100.00
72423;BME280;60413;55.658;37.498;2022-10-16T03:06:46;100141.53;;;3.26;100.00
72423;BME280;60413;55.658;37.498;2022-10-16T03:09:12;100114.66;;;3.01;100.00
72423;BME280;60413;55.658;37.498;2022-10-16T03:11:38;100191.28;;;3.64;100.00
72423;BME280;60413;55.658;37.498;2022-10-16T03:14:04;100141.31;;;3.27;100.00
72423;BME280;60413;55.658;37.498;2022-10-16T03:16:43;100141.53;;;3.26;100.00
72423;BME280;60413;55.658;37.498;2022-10-16T03:19:10;100143.97;;;3.19;100.00
72423;BME280;60413;55.658;37.498;2022-10-16T03:21:36;100203.69;;;3.37;100.00
72423;BME280;60413;55.658;37.498;2022-10-16T03:24:04;100166.09;;;3.15;100.00
72423;BME280;60413;55.658;37.498;2022-10-16T03:26:30;100186.44;;;3.20;100.00
72423;BME280;60413;55.658;37.498;2022-10-16T03:29:00;100209.91;;;3.36;100.00
72423;BME280;60413;55.658;37.498;2022-10-16T03:31:28;100154.72;;;3.00;100.00
72423;BME280;60413;55.658;37.498;2022-10-16T03:33:54;100213.47;;;3.27;100.00
72423;BME280;60413;55.658;37.498;2022-10-16T03:36:22;100213.97;;;3.30;100.00
72423;BME280;60413;55.658;37.498;2022-10-16T03:38:55;100163.00;;;3.11;100.00
72423;BME280;60413;55.658;37.498;2022-10-16T03:41:21;100184.81;;;3.10;100.00
72423;BME280;60413;55.658;37.498;2022-10-16T03:43:47;100180.28;;;3.04;100.00
72423;BME280;60413;55.658;37.498;2022-10-16T03:46:14;100123.28;;;2.68;100.00
72423;BME280;60413;55.658;37.498;2022-10-16T03:48:42;100170.81;;;3.03;100.00
72423;BME280;60413;55.658;37.498;2022-10-16T03:51:08;100175.38;;;3.09;100.00
72423;BME280;60413;55.658;37.498;2022-10-16T03:53:37;100139.09;;;2.83;100.00
72423;BME280;60413;55.658;37.498;2022-10-16T03:56:06;100217.72;;;3.28;100.00
72423;BME280;60413;55.658;37.498;2022-10-16T03:58:37;100175.38;;;3.09;100.00
72423;BME280;60413;55.658;37.498;2022-10-16T04:01:03;100129.31;;;2.77;100.00
72423;BME280;60413;55.658;37.498;2022-10-16T04:03:32;100139.88;;;2.75;100.00
72423;BME280;60413;55.658;37.498;2022-10-16T04:06:07;100144.63;;;2.80;100.00
72423;BME280;60413;55.658;37.498;2022-10-16T04:08:43;100223.25;;;3.33;100.00
72423;BME280;60413;55.658;37.498;2022-10-16T04:11:17;100126.22;;;2.82;100.00
72423;BME280;60413;55.658;37.498;2022-10-16T04:13:51;100132.06;;;3.17;100.00
72423;BME280;60413;55.658;37.498;2022-10-16T04:16:19;100216.75;;;4.10;100.00
72423;BME280;60413;55.658;37.498;2022-10-16T04:18:48;100167.63;;;4.21;100.00
72423;BME280;60413;55.658;37.498;2022-10-16T04:21:16;100174.97;;;4.49;100.00
72423;BME280;60413;55.658;37.498;2022-10-16T04:23:42;100144.53;;;4.02;100.00
72423;BME280;60413;55.658;37.498;2022-10-16T04:26:08;100144.41;;;3.95;100.00
72423;BME280;60413;55.658;37.498;2022-10-16T04:28:38;100182.91;;;4.33;100.00
72423;BME280;60413;55.658;37.498;2022-10-16T04:31:08;100148.97;;;4.01;100.00
72423;BME280;60413;55.658;37.498;2022-10-16T04:34:05;100215.28;;;4.47;100.00
72423;BME280;60413;55.658;37.498;2022-10-16T04:36:49;100140.56;;;4.14;100.00
72423;BME280;60413;55.658;37.498;2022-10-16T04:39:20;100170.91;;;4.47;100.00
72423;BME280;60413;55.658;37.498;2022-10-16T04:41:49;100139.34;;;4.33;100.00
72423;BME280;60413;55.658;37.498;2022-10-16T04:44:18;100199.44;;;4.48;100.00
72423;BME280;60413;55.658;37.498;2022-10-16T04:46:44;100205.44;;;4.57;100.00
72423;BME280;60413;55.658;37.498;2022-10-16T04:49:12;100212.16;;;4.74;100.00
72423;BME280;60413;55.658;37.498;2022-10-16T04:51:49;100241.31;;;4.63;100.00
72423;BME280;60413;55.658;37.498;2022-10-16T04:54:15;100232.22;;;4.82;100.00
72423;BME280;60413;55.658;37.498;2022-10-16T04:56:44;100162.09;;;4.16;100.00
72423;BME280;60413;55.658;37.498;2022-10-16T04:59:14;100214.38;;;4.62;100.00
72423;BME280;60413;55.658;37.498;2022-10-16T05:01:47;100201.34;;;4.54;100.00
72423;BME280;60413;55.658;37.498;2022-10-16T05:04:16;100168.28;;;4.15;100.00
72423;BME280;60413;55.658;37.498;2022-10-16T05:06:49;100192.34;;;4.34;100.00
72423;BME280;60413;55.658;37.498;2022-10-16T05:09:16;100209.09;;;4.71;100.00
72423;BME280;60413;55.658;37.498;2022-10-16T05:11:42;100191.25;;;4.59;100.00
72423;BME280;60413;55.658;37.498;2022-10-16T05:14:10;100172.09;;;4.90;100.00
72423;BME280;60413;55.658;37.498;2022-10-16T05:16:36;100191.91;;;5.90;100.00
72423;BME280;60413;55.658;37.498;2022-10-16T05:19:02;100187.34;;;7.30;100.00
72423;BME280;60413;55.658;37.498;2022-10-16T05:21:28;100221.41;;;8.77;100.00
72423;BME280;60413;55.658;37.498;2022-10-16T05:23:54;100182.84;;;9.17;100.00
72423;BME280;60413;55.658;37.498;2022-10-16T05:26:21;100211.00;;;10.09;100.00
72423;BME280;60413;55.658;37.498;2022-10-16T05:28:50;100204.56;;;10.88;100.00
72423;BME280;60413;55.658;37.498;2022-10-16T05:31:21;100202.94;;;10.87;100.00
72423;BME280;60413;55.658;37.498;2022-10-16T05:33:47;100210.56;;;11.27;100.00
72423;BME280;60413;55.658;37.498;2022-10-16T05:36:14;100230.91;;;11.89;100.00
72423;BME280;60413;55.658;37.498;2022-10-16T05:38:43;100212.22;;;12.28;100.00
72423;BME280;60413;55.658;37.498;2022-10-16T05:41:12;100225.66;;;12.45;100.00
72423;BME280;60413;55.658;37.498;2022-10-16T05:43:38;100254.56;;;12.58;100.00
72423;BME280;60413;55.658;37.498;2022-10-16T05:46:05;100204.00;;;12.66;100.00
72423;BME280;60413;55.658;37.498;2022-10-16T05:48:56;100251.03;;;13.06;100.00
72423;BME280;60413;55.658;37.498;2022-10-16T05:51:25;100234.22;;;13.01;100.00
72423;BME280;60413;55.658;37.498;2022-10-16T05:53:55;100193.28;;;12.91;100.00
72423;BME280;60413;55.658;37.498;2022-10-16T05:56:21;100202.25;;;13.02;100.00
72423;BME280;60413;55.658;37.498;2022-10-16T05:58:47;100223.16;;;13.69;100.00
72423;BME280;60413;55.658;37.498;2022-10-16T06:01:16;100225.22;;;13.79;100.00
72423;BME280;60413;55.658;37.498;2022-10-16T06:03:45;100219.09;;;13.90;100.00
72423;BME280;60413;55.658;37.498;2022-10-16T06:06:30;100223.41;;;14.32;100.00
72423;BME280;60413;55.658;37.498;2022-10-16T06:09:04;100211.66;;;14.16;100.00
72423;BME280;60413;55.658;37.498;2022-10-16T06:11:31;100211.47;;;14.06;100.00
72423;BME280;60413;55.658;37.498;2022-10-16T06:14:08;100194.44;;;14.02;100.00
72423;BME280;60413;55.658;37.498;2022-10-16T06:16:35;100263.88;;;14.27;100.00
72423;BME280;60413;55.658;37.498;2022-10-16T06:19:07;100245.91;;;14.58;100.00
72423;BME280;60413;55.658;37.498;2022-10-16T06:21:34;100220.13;;;13.89;100.00
72423;BME280;60413;55.658;37.498;2022-10-16T06:24:01;100254.66;;;14.71;100.00
72423;BME280;60413;55.658;37.498;2022-10-16T06:26:31;100215.88;;;14.41;100.00
72423;BME280;60413;55.658;37.498;2022-10-16T06:31:53;100210.28;;;14.25;100.00
72423;BME280;60413;55.658;37.498;2022-10-16T06:34:19;100215.53;;;14.37;100.00
72423;BME280;60413;55.658;37.498;2022-10-16T06:36:45;100237.66;;;15.17;100.00
72423;BME280;60413;55.658;37.498;2022-10-16T06:39:11;100217.72;;;15.32;100.00
72423;BME280;60413;55.658;37.498;2022-10-16T06:41:37;100219.31;;;15.16;100.00
72423;BME280;60413;55.658;37.498;2022-10-16T06:44:14;100223.91;;;15.04;100.00
72423;BME280;60413;55.658;37.498;2022-10-16T06:46:40;100242.75;;;15.19;100.00
72423;BME280;60413;55.658;37.498;2022-10-16T06:49:06;100210.97;;;15.24;100.00
72423;BME280;60413;55.658;37.498;2022-10-16T06:51:39;100278.13;;;15.08;100.00
72423;BME280;60413;55.658;37.498;2022-10-16T06:54:06;100249.38;;;14.18;100.00
72423;BME280;60413;55.658;37.498;2022-10-16T06:56:33;100213.28;;;14.17;100.00
72423;BME280;60413;55.658;37.498;2022-10-16T06:59:02;100245.91;;;14.70;100.00
72423;BME280;60413;55.658;37.498;2022-10-16T07:01:28;100256.50;;;14.70;100.00
72423;BME280;60413;55.658;37.498;2022-10-16T07:03:54;100252.81;;;14.88;100.00
72423;BME280;60413;55.658;37.498;2022-10-16T07:06:22;100229.31;;;15.09;100.00
72423;BME280;60413;55.658;37.498;2022-10-16T07:08:49;100234.78;;;15.02;100.00
72423;BME280;60413;55.658;37.498;2022-10-16T07:11:20;100260.47;;;14.85;100.00
72423;BME280;60413;55.658;37.498;2022-10-16T07:13:47;100233.72;;;14.17;100.00
72423;BME280;60413;55.658;37.498;2022-10-16T07:16:19;100207.97;;;13.77;100.00
72423;BME280;60413;55.658;37.498;2022-10-16T07:18:45;100220.16;;;13.66;100.00
72423;BME280;60413;55.658;37.498;2022-10-16T07:21:23;100232.81;;;13.99;100.00
72423;BME280;60413;55.658;37.498;2022-10-16T07:23:55;100212.56;;;13.58;100.00
72423;BME280;60413;55.658;37.498;2022-10-16T07:26:22;100230.53;;;13.67;100.00
72423;BME280;60413;55.658;37.498;2022-10-16T07:28:50;100240.88;;;13.93;100.00
72423;BME280;60413;55.658;37.498;2022-10-16T07:31:18;100228.56;;;13.98;100.00
72423;BME280;60413;55.658;37.498;2022-10-16T07:33:50;100227.31;;;13.42;100.00
72423;BME280;60413;55.658;37.498;2022-10-16T07:36:18;100208.41;;;13.74;100.00
72423;BME280;60413;55.658;37.498;2022-10-16T07:38:44;100231.56;;;13.90;100.00
72423;BME280;60413;55.658;37.498;2022-10-16T07:41:19;100258.06;;;14.42;100.00
72423;BME280;60413;55.658;37.498;2022-10-16T07:43:53;100230.84;;;14.47;100.00
72423;BME280;60413;55.658;37.498;2022-10-16T07:46:23;100230.56;;;14.89;100.00
72423;BME280;60413;55.658;37.498;2022-10-16T07:48:50;100250.81;;;14.78;100.00
72423;BME280;60413;55.658;37.498;2022-10-16T07:51:24;100219.56;;;14.97;100.00
72423;BME280;60413;55.658;37.498;2022-10-16T07:53:50;100251.03;;;15.06;100.00
72423;BME280;60413;55.658;37.498;2022-10-16T07:56:18;100238.63;;;15.28;100.00
72423;BME280;60413;55.658;37.498;2022-10-16T07:58:45;100231.41;;;15.41;100.00
72423;BME280;60413;55.658;37.498;2022-10-16T08:01:13;100242.22;;;14.59;100.00
72423;BME280;60413;55.658;37.498;2022-10-16T08:03:48;100277.59;;;14.77;100.00
72423;BME280;60413;55.658;37.498;2022-10-16T08:06:15;100270.66;;;14.76;100.00
72423;BME280;60413;55.658;37.498;2022-10-16T08:08:42;100236.94;;;14.59;100.00
72423;BME280;60413;55.658;37.498;2022-10-16T08:11:11;100226.44;;;14.53;100.00
72423;BME280;60413;55.658;37.498;2022-10-16T08:13:41;100256.97;;;15.13;100.00
72423;BME280;60413;55.658;37.498;2022-10-16T08:16:08;100274.94;;;14.77;100.00
72423;BME280;60413;55.658;37.498;2022-10-16T08:18:36;100268.16;;;14.57;100.00
72423;BME280;60413;55.658;37.498;2022-10-16T08:21:02;100245.66;;;14.72;100.00
72423;BME280;60413;55.658;37.498;2022-10-16T08:23:29;100241.00;;;14.79;100.00
72423;BME280;60413;55.658;37.498;2022-10-16T08:25:55;100271.91;;;14.85;100.00
72423;BME280;60413;55.658;37.498;2022-10-16T08:28:32;100230.09;;;14.92;100.00
72423;BME280;60413;55.658;37.498;2022-10-16T08:31:06;100258.34;;;15.15;100.00
72423;BME280;60413;55.658;37.498;2022-10-16T08:33:33;100264.47;;;14.70;100.00
72423;BME280;60413;55.658;37.498;2022-10-16T08:36:01;100222.91;;;14.76;100.00
72423;BME280;60413;55.658;37.498;2022-10-16T08:38:32;100288.78;;;15.42;100.00
72423;BME280;60413;55.658;37.498;2022-10-16T08:41:30;100290.16;;;15.27;100.00
72423;BME280;60413;55.658;37.498;2022-10-16T08:49:35;100242.22;;;14.59;100.00
72423;BME280;60413;55.658;37.498;2022-10-16T08:52:11;100212.59;;;14.51;100.00
72423;BME280;60413;55.658;37.498;2022-10-16T08:54:42;100231.88;;;14.46;100.00
72423;BME280;60413;55.658;37.498;2022-10-16T08:57:14;100278.97;;;14.27;100.00
72423;BME280;60413;55.658;37.498;2022-10-16T08:59:41;100236.84;;;13.55;100.00
72423;BME280;60413;55.658;37.498;2022-10-16T09:02:29;100235.50;;;13.40;100.00
72423;BME280;60413;55.658;37.498;2022-10-16T09:08:13;100271.31;;;13.78;100.00
72423;BME280;60413;55.658;37.498;2022-10-16T09:10:58;100258.81;;;14.14;100.00
72423;BME280;60413;55.658;37.498;2022-10-16T09:16:16;100264.25;;;14.60;100.00
72423;BME280;60413;55.658;37.498;2022-10-16T09:19:10;100272.44;;;14.58;100.00
72423;BME280;60413;55.658;37.498;2022-10-16T09:21:44;100233.09;;;14.67;100.00
72423;BME280;60413;55.658;37.498;2022-10-16T09:24:24;100226.56;;;14.05;100.00
72423;BME280;60413;55.658;37.498;2022-10-16T09:27:02;100207.59;;;13.61;100.00
72423;BME280;60413;55.658;37.498;2022-10-16T09:29:31;100205.44;;;13.58;100.00
72423;BME280;60413;55.658;37.498;2022-10-16T09:32:23;100212.09;;;13.61;100.00
72423;BME280;60413;55.658;37.498;2022-10-16T09:34:52;100245.63;;;13.67;100.00
72423;BME280;60413;55.658;37.498;2022-10-16T09:37:23;100220.41;;;13.64;100.00
72423;BME280;60413;55.658;37.498;2022-10-16T09:39:52;100220.22;;;14.06;100.00
72423;BME280;60413;55.658;37.498;2022-10-16T09:42:24;100212.75;;;14.03;100.00
72423;BME280;60413;55.658;37.498;2022-10-16T09:44:57;100227.06;;;13.90;100.00
72423;BME280;60413;55.658;37.498;2022-10-16T09:47:31;100192.66;;;13.67;100.00
72423;BME280;60413;55.658;37.498;2022-10-16T09:50:25;100263.59;;;14.00;100.00
72423;BME280;60413;55.658;37.498;2022-10-16T09:53:13;100217.13;;;13.15;100.00
72423;BME280;60413;55.658;37.498;2022-10-16T09:55:49;100199.22;;;12.87;100.00
72423;BME280;60413;55.658;37.498;2022-10-16T09:58:20;100183.31;;;12.63;100.00
72423;BME280;60413;55.658;37.498;2022-10-16T10:01:00;100186.19;;;12.73;100.00
72423;BME280;60413;55.658;37.498;2022-10-16T10:03:33;100191.47;;;12.62;100.00
72423;BME280;60413;55.658;37.498;2022-10-16T10:06:07;100231.31;;;12.78;100.00
72423;BME280;60413;55.658;37.498;2022-10-16T10:08:40;100176.19;;;12.33;100.00
72423;BME280;60413;55.658;37.498;2022-10-16T10:11:07;100180.06;;;12.31;100.00
72423;BME280;60413;55.658;37.498;2022-10-16T10:13:33;100223.59;;;12.47;100.00
72423;BME280;60413;55.658;37.498;2022-10-16T10:15:59;100201.34;;;12.36;100.00
72423;BME280;60413;55.658;37.498;2022-10-16T10:18:28;100194.75;;;12.27;100.00
72423;BME280;60413;55.658;37.498;2022-10-16T10:21:01;100242.81;;;12.54;100.00
72423;BME280;60413;55.658;37.498;2022-10-16T10:23:29;100205.25;;;12.33;100.00
72423;BME280;60413;55.658;37.498;2022-10-16T10:26:13;100199.94;;;12.52;100.00
72423;BME280;60413;55.658;37.498;2022-10-16T10:28:50;100184.09;;;12.33;100.00
72423;BME280;60413;55.658;37.498;2022-10-16T10:31:39;100154.25;;;11.96;100.00
72423;BME280;60413;55.658;37.498;2022-10-16T10:37:08;100224.84;;;12.26;100.00
72423;BME280;60413;55.658;37.498;2022-10-16T10:39:46;100185.00;;;12.27;100.00
72423;BME280;60413;55.658;37.498;2022-10-16T10:42:28;100244.31;;;12.50;100.00
72423;BME280;60413;55.658;37.498;2022-10-16T10:45:27;100241.63;;;12.68;100.00
72423;BME280;60413;55.658;37.498;2022-10-16T10:51:38;100195.00;;;12.07;100.00
72423;BME280;60413;55.658;37.498;2022-10-16T10:54:14;100228.81;;;12.35;100.00
72423;BME280;60413;55.658;37.498;2022-10-16T10:56:55;100232.19;;;12.42;100.00
72423;BME280;60413;55.658;37.498;2022-10-16T10:59:35;100229.72;;;12.59;100.00
72423;BME280;60413;55.658;37.498;2022-10-16T11:02:50;100226.63;;;12.62;100.00
72423;BME280;60413;55.658;37.498;2022-10-16T11:11:21;100142.59;;;11.66;100.00
72423;BME280;60413;55.658;37.498;2022-10-16T11:16:59;100181.78;;;12.25;100.00
72423;BME280;60413;55.658;37.498;2022-10-16T11:19:48;100194.63;;;12.21;100.00
72423;BME280;60413;55.658;37.498;2022-10-16T11:22:32;100185.66;;;12.22;100.00
72423;BME280;60413;55.658;37.498;2022-10-16T11:25:21;100169.25;;;12.02;100.00
72423;BME280;60413;55.658;37.498;2022-10-16T11:31:39;100203.16;;;12.05;100.00
72423;BME280;60413;55.658;37.498;2022-10-16T11:34:17;100212.38;;;12.14;100.00
72423;BME280;60413;55.658;37.498;2022-10-16T11:37:02;100148.47;;;11.68;100.00
72423;BME280;60413;55.658;37.498;2022-10-16T11:39:35;100153.31;;;11.72;100.00
72423;BME280;60413;55.658;37.498;2022-10-16T11:42:26;100164.66;;;11.91;100.00
72423;BME280;60413;55.658;37.498;2022-10-16T11:47:45;100214.38;;;12.19;100.00
72423;BME280;60413;55.658;37.498;2022-10-16T11:50:48;100197.75;;;12.30;100.00
72423;BME280;60413;55.658;37.498;2022-10-16T11:56:12;100145.47;;;12.02;100.00
72423;BME280;60413;55.658;37.498;2022-10-16T11:59:06;100180.28;;;12.29;100.00
72423;BME280;60413;55.658;37.498;2022-10-16T12:01:45;100171.81;;;12.39;100.00
72423;BME280;60413;55.658;37.498;2022-10-16T12:07:11;100181.16;;;12.84;100.00
72423;BME280;60413;55.658;37.498;2022-10-16T12:09:40;100141.28;;;12.43;100.00
72423;BME280;60413;55.658;37.498;2022-10-16T12:12:38;100158.97;;;12.42;100.00
72423;BME280;60413;55.658;37.498;2022-10-16T12:15:22;100187.25;;;12.42;100.00
72423;BME280;60413;55.658;37.498;2022-10-16T12:17:54;100177.25;;;12.44;100.00
72423;BME280;60413;55.658;37.498;2022-10-16T12:20:32;100133.00;;;12.21;100.00
72423;BME280;60413;55.658;37.498;2022-10-16T12:23:16;100183.84;;;12.53;100.00
72423;BME280;60413;55.658;37.498;2022-10-16T12:25:57;100189.38;;;12.64;100.00
72423;BME280;60413;55.658;37.498;2022-10-16T12:28:32;100109.41;;;12.08;100.00
72423;BME280;60413;55.658;37.498;2022-10-16T12:31:07;100120.50;;;12.16;100.00
72423;BME280;60413;55.658;37.498;2022-10-16T12:34:01;100198.66;;;12.54;100.00
72423;BME280;60413;55.658;37.498;2022-10-16T12:36:37;100150.63;;;12.57;100.00
72423;BME280;60413;55.658;37.498;2022-10-16T12:39:04;100187.41;;;13.13;100.00
72423;BME280;60413;55.658;37.498;2022-10-16T12:41:45;100125.66;;;12.53;100.00
72423;BME280;60413;55.658;37.498;2022-10-16T12:44:32;100146.06;;;12.34;100.00
72423;BME280;60413;55.658;37.498;2022-10-16T12:47:35;100139.69;;;12.23;100.00
72423;BME280;60413;55.658;37.498;2022-10-16T12:50:24;100117.13;;;11.91;100.00
72423;BME280;60413;55.658;37.498;2022-10-16T12:56:01;100195.56;;;12.27;100.00
72423;BME280;60413;55.658;37.498;2022-10-16T12:58:59;100190.78;;;12.17;100.00
72423;BME280;60413;55.658;37.498;2022-10-16T13:05:13;100166.25;;;11.98;100.00
72423;BME280;60413;55.658;37.498;2022-10-16T13:20:24;100185.22;;;11.70;100.00
72423;BME280;60413;55.658;37.498;2022-10-16T13:23:22;100185.94;;;11.77;100.00
72423;BME280;60413;55.658;37.498;2022-10-16T13:26:38;100175.16;;;11.60;100.00
72423;BME280;60413;55.658;37.498;2022-10-16T13:29:11;100157.28;;;11.37;100.00
72423;BME280;60413;55.658;37.498;2022-10-16T13:31:47;100112.31;;;11.07;100.00
72423;BME280;60413;55.658;37.498;2022-10-16T13:34:44;100100.13;;;11.06;100.00
72423;BME280;60413;55.658;37.498;2022-10-16T13:38:12;100156.06;;;11.40;100.00
72423;BME280;60413;55.658;37.498;2022-10-16T13:40:51;100180.19;;;11.43;100.00
72423;BME280;60413;55.658;37.498;2022-10-16T13:43:31;100153.66;;;11.13;100.00
72423;BME280;60413;55.658;37.498;2022-10-16T13:46:13;100138.44;;;10.90;100.00
72423;BME280;60413;55.658;37.498;2022-10-16T13:48:43;100119.56;;;10.61;100.00
72423;BME280;60413;55.658;37.498;2022-10-16T13:51:17;100122.00;;;10.63;100.00
72423;BME280;60413;55.658;37.498;2022-10-16T13:53:51;100115.56;;;10.52;100.00
72423;BME280;60413;55.658;37.498;2022-10-16T13:56:43;100114.81;;;10.45;100.00
72423;BME280;60413;55.658;37.498;2022-10-16T13:59:47;100140.78;;;10.41;100.00
72423;BME280;60413;55.658;37.498;2022-10-16T14:02:45;100175.34;;;10.58;100.00
72423;BME280;60413;55.658;37.498;2022-10-16T14:06:05;100178.06;;;10.45;100.00
72423;BME280;60413;55.658;37.498;2022-10-16T14:08:46;100143.72;;;10.19;100.00
72423;BME280;60413;55.658;37.498;2022-10-16T14:11:23;100137.72;;;9.99;100.00
72423;BME280;60413;55.658;37.498;2022-10-16T14:14:04;100141.16;;;9.99;100.00
72423;BME280;60413;55.658;37.498;2022-10-16T14:16:31;100148.50;;;9.91;100.00
72423;BME280;60413;55.658;37.498;2022-10-16T14:19:13;100112.31;;;9.66;100.00
72423;BME280;60413;55.658;37.498;2022-10-16T14:21:44;100160.63;;;9.92;100.00
72423;BME280;60413;55.658;37.498;2022-10-16T14:24:41;100192.38;;;10.04;100.00
72423;BME280;60413;55.658;37.498;2022-10-16T14:27:35;100148.75;;;9.69;100.00